Time;durP1;ratioP1;P1;durP2;ratioP2;P2;SDS_P1;SDS_P2;PMS_P1;PMS_P2;Temp;Humidity;BMP_temperature;BMP_pressure;BME280_temperature;BME280_humidity;BME280_pressure;Samples;Min_cycle;Max_cycle;Signal;HPM_P1;HPM_P2
2024/02/05 00:00:06;;;;;;;24.92;4.57;;;11.70;99.90;;;;;;5045752;28;20029;-73
2024/02/05 00:02:31;;;;;;;20.33;4.72;;;11.70;99.90;;;;;;5045897;28;20036;-73
2024/02/05 00:04:57;;;;;;;19.30;4.57;;;11.70;99.90;;;;;;5046489;28;20013;-74
2024/02/05 00:07:23;;;;;;;22.75;4.47;;;11.70;99.90;;;;;;5034367;28;20430;-74
2024/02/05 00:09:48;;;;;;;20.00;5.00;;;11.70;99.90;;;;;;5044120;28;20056;-74
2024/02/05 00:12:16;;;;;;;22.17;4.63;;;11.70;99.90;;;;;;5043876;28;20056;-73
2024/02/05 00:14:42;;;;;;;27.85;5.05;;;11.60;99.90;;;;;;5042291;28;20067;-74
2024/02/05 00:17:09;;;;;;;20.35;5.25;;;11.60;99.90;;;;;;5044831;28;20417;-73
2024/02/05 00:19:35;;;;;;;21.27;5.38;;;11.60;99.90;;;;;;5044905;28;20111;-73
2024/02/05 00:22:02;;;;;;;25.63;4.70;;;11.60;99.90;;;;;;5044673;28;20105;-73
2024/02/05 00:24:27;;;;;;;22.33;4.97;;;11.60;99.90;;;;;;5046515;28;20021;-74
2024/02/05 00:26:53;;;;;;;24.92;4.88;;;11.60;99.90;;;;;;5046021;28;20549;-74
2024/02/05 00:29:18;;;;;;;27.55;5.30;;;11.60;99.90;;;;;;5046256;28;20024;-74
2024/02/05 00:31:44;;;;;;;23.55;4.97;;;11.60;99.90;;;;;;5045536;28;20033;-74
2024/02/05 00:34:10;;;;;;;29.48;6.00;;;11.60;99.90;;;;;;5046004;28;20028;-74
2024/02/05 00:36:35;;;;;;;19.85;4.10;;;11.60;99.90;;;;;;5045940;28;20032;-75
2024/02/05 00:39:01;;;;;;;22.50;5.13;;;11.50;99.90;;;;;;5045663;28;20021;-75
2024/02/05 00:41:26;;;;;;;23.27;4.75;;;11.50;99.90;;;;;;5045854;28;20021;-75
2024/02/05 00:43:53;;;;;;;25.77;5.25;;;11.50;99.90;;;;;;5045714;28;20124;-75
2024/02/05 00:46:26;;;;;;;24.20;5.03;;;11.50;99.90;;;;;;5046371;28;20534;-75
2024/02/05 00:48:55;;;;;;;28.83;5.50;;;11.50;99.90;;;;;;5046235;28;20060;-75
2024/02/05 00:51:21;;;;;;;27.80;6.22;;;11.50;99.90;;;;;;5030592;28;20017;-74
2024/02/05 00:53:48;;;;;;;32.40;6.57;;;11.50;99.90;;;;;;5044907;28;20592;-75
2024/02/05 00:56:13;;;;;;;18.27;4.82;;;11.50;99.90;;;;;;5046023;28;20032;-75
2024/02/05 00:58:39;;;;;;;28.65;6.13;;;11.50;99.90;;;;;;5043802;28;20868;-75
2024/02/05 01:01:05;;;;;;;19.75;5.03;;;11.50;99.90;;;;;;5046395;28;20024;-75
2024/02/05 01:03:31;;;;;;;24.42;5.65;;;11.50;99.90;;;;;;5043824;28;20505;-75
2024/02/05 01:05:57;;;;;;;34.25;5.43;;;11.50;99.90;;;;;;5045731;28;20017;-75
2024/02/05 01:08:23;;;;;;;21.92;4.47;;;11.50;99.90;;;;;;5045405;28;20040;-75
2024/02/05 01:10:49;;;;;;;26.65;4.95;;;11.50;99.90;;;;;;5046044;28;20025;-75
2024/02/05 01:13:14;;;;;;;22.67;6.00;;;11.50;99.90;;;;;;5038937;28;20028;-73
2024/02/05 01:15:41;;;;;;;26.60;6.05;;;11.50;99.90;;;;;;5045619;28;20406;-73
2024/02/05 01:18:06;;;;;;;27.75;5.95;;;11.50;99.90;;;;;;5043894;28;20052;-74
2024/02/05 01:20:32;;;;;;;19.35;5.30;;;11.50;99.90;;;;;;5045460;28;20526;-74
2024/02/05 01:22:58;;;;;;;29.77;5.70;;;11.50;99.90;;;;;;5045194;28;20505;-74
2024/02/05 01:25:23;;;;;;;21.02;5.28;;;11.50;99.90;;;;;;5044159;28;20089;-73
2024/02/05 01:27:49;;;;;;;33.90;6.20;;;11.50;99.90;;;;;;5044822;28;20378;-74
2024/02/05 01:30:15;;;;;;;24.75;5.88;;;11.40;99.90;;;;;;5044167;28;20306;-73
2024/02/05 01:32:41;;;;;;;29.33;5.03;;;11.40;99.90;;;;;;5044720;28;20024;-74
2024/02/05 01:35:07;;;;;;;26.95;5.03;;;11.40;99.90;;;;;;5045426;28;20040;-74
2024/02/05 01:37:32;;;;;;;22.77;6.05;;;11.40;99.90;;;;;;5044921;28;20017;-74
2024/02/05 01:39:58;;;;;;;26.08;5.07;;;11.40;99.90;;;;;;5045665;28;20552;-74
2024/02/05 01:42:26;;;;;;;28.08;6.18;;;11.40;99.90;;;;;;5048857;28;20047;-73
2024/02/05 01:44:53;;;;;;;25.83;6.05;;;11.30;99.90;;;;;;5049344;28;20364;-74
2024/02/05 01:47:19;;;;;;;28.08;5.85;;;11.30;99.90;;;;;;5048845;28;20021;-74
2024/02/05 01:49:47;;;;;;;33.95;6.35;;;11.30;99.90;;;;;;5048758;28;20662;-74
2024/02/05 01:52:16;;;;;;;28.50;4.65;;;11.30;99.90;;;;;;5048388;28;20025;-73
2024/02/05 01:54:42;;;;;;;26.80;3.35;;;11.20;99.90;;;;;;5048738;28;20380;-73
2024/02/05 01:57:10;;;;;;;18.75;3.05;;;11.20;99.90;;;;;;5048620;28;20071;-74
2024/02/05 01:59:37;;;;;;;23.27;4.38;;;11.20;99.90;;;;;;5048985;28;20029;-74
2024/02/05 02:02:03;;;;;;;27.30;5.05;;;11.20;99.90;;;;;;5049087;28;20036;-74
2024/02/05 02:04:29;;;;;;;30.33;6.35;;;11.10;99.90;;;;;;5047347;28;20029;-73
2024/02/05 02:06:55;;;;;;;17.70;4.13;;;11.10;99.90;;;;;;5047303;28;20305;-74
2024/02/05 02:09:22;;;;;;;29.20;3.45;;;11.10;99.90;;;;;;5048467;28;20490;-74
2024/02/05 02:11:48;;;;;;;16.67;3.25;;;11.10;99.90;;;;;;5046774;28;20124;-74
2024/02/05 02:14:13;;;;;;;22.75;4.13;;;11.10;99.90;;;;;;5042072;28;20103;-74
2024/02/05 02:16:39;;;;;;;23.17;3.33;;;11.00;99.90;;;;;;5048340;28;20036;-74
2024/02/05 02:19:23;;;;;;;21.98;3.75;;;11.00;99.90;;;;;;5046839;28;20341;-73
2024/02/05 02:22:13;;;;;;;23.80;4.05;;;10.90;99.90;;;;;;5047986;28;20033;-73
2024/02/05 02:24:39;;;;;;;21.85;4.13;;;10.90;99.90;;;;;;5048670;28;20053;-74
2024/02/05 02:27:05;;;;;;;18.85;4.07;;;10.90;99.90;;;;;;5048275;28;20061;-75
2024/02/05 02:29:31;;;;;;;34.08;7.07;;;10.80;99.90;;;;;;5047962;28;20025;-75
2024/02/05 02:32:12;;;;;;;25.75;5.80;;;10.80;99.90;;;;;;5046736;28;20112;-75
2024/02/05 02:34:40;;;;;;;;;;;10.80;99.90;;;;;;5048865;28;20037;-75
2024/02/05 02:37:09;;;;;;;34.10;6.90;;;10.80;99.90;;;;;;5047869;28;20366;-75
2024/02/05 02:39:43;;;;;;;25.15;5.40;;;10.80;99.90;;;;;;5048255;28;20017;-75
2024/02/05 02:42:11;;;;;;;34.08;6.32;;;10.80;99.90;;;;;;5046587;28;20058;-75
2024/02/05 02:44:37;;;;;;;27.33;6.40;;;10.70;99.90;;;;;;5047494;28;20021;-75
2024/02/05 02:47:04;;;;;;;29.48;5.22;;;10.70;99.90;;;;;;5047891;28;20088;-76
2024/02/05 02:49:29;;;;;;;38.35;6.63;;;10.70;99.90;;;;;;5047802;28;20122;-75
2024/02/05 02:51:55;;;;;;;32.30;6.03;;;10.70;99.90;;;;;;5047733;28;20501;-75
2024/02/05 02:54:21;;;;;;;31.80;6.60;;;10.70;99.90;;;;;;5047141;28;20059;-75
2024/02/05 02:56:46;;;;;;;25.67;5.82;;;10.70;99.90;;;;;;5047326;28;20031;-78
2024/02/05 02:59:12;;;;;;;26.95;6.78;;;10.70;99.90;;;;;;5047325;28;20029;-76
2024/02/05 03:01:38;;;;;;;32.83;7.15;;;10.70;99.90;;;;;;5047576;28;20486;-75
2024/02/05 03:04:03;;;;;;;27.05;5.90;;;10.70;99.90;;;;;;5047224;28;20386;-75
2024/02/05 03:06:31;;;;;;;30.92;6.40;;;10.70;99.90;;;;;;5047470;28;20021;-76
2024/02/05 03:08:57;;;;;;;25.73;6.10;;;10.70;99.90;;;;;;5047557;28;20184;-75
2024/02/05 03:11:23;;;;;;;36.88;7.20;;;10.70;99.90;;;;;;5047938;28;20482;-75
2024/02/05 03:13:48;;;;;;;26.85;6.65;;;10.70;99.90;;;;;;5040442;28;20478;-75
2024/02/05 03:16:14;;;;;;;25.85;5.97;;;10.70;99.90;;;;;;5032437;28;20606;-75
2024/02/05 03:18:40;;;;;;;25.55;5.70;;;10.70;99.90;;;;;;5047106;28;20463;-75
2024/02/05 03:21:06;;;;;;;36.58;6.53;;;10.70;99.90;;;;;;5046002;28;20074;-75
2024/02/05 03:23:32;;;;;;;31.25;6.65;;;10.70;99.90;;;;;;5046909;28;20410;-75
2024/02/05 03:25:57;;;;;;;32.72;6.15;;;10.70;99.90;;;;;;5047615;28;20031;-75
2024/02/05 03:28:26;;;;;;;26.98;7.50;;;10.70;99.90;;;;;;5047167;28;20036;-76
2024/02/05 03:30:52;;;;;;;30.67;6.00;;;10.70;99.90;;;;;;5047624;28;20439;-75
2024/02/05 03:33:18;;;;;;;28.55;5.63;;;10.70;99.90;;;;;;5046765;28;20415;-75
2024/02/05 03:35:43;;;;;;;31.52;6.65;;;10.70;99.90;;;;;;5045552;28;20032;-75
2024/02/05 03:38:09;;;;;;;23.42;5.82;;;10.70;99.90;;;;;;5045366;28;20055;-75
2024/02/05 03:40:35;;;;;;;24.23;5.70;;;10.70;99.90;;;;;;5046672;28;20410;-75
2024/02/05 03:43:01;;;;;;;22.23;5.72;;;10.80;99.90;;;;;;5046728;28;20056;-75
2024/02/05 03:45:27;;;;;;;27.95;6.15;;;10.80;99.90;;;;;;5046977;28;20439;-75
2024/02/05 03:47:53;;;;;;;33.30;6.75;;;10.80;99.90;;;;;;5046696;28;20103;-75
2024/02/05 03:50:18;;;;;;;29.88;6.47;;;10.80;99.90;;;;;;5047467;28;20108;-75
2024/02/05 03:52:45;;;;;;;30.92;6.95;;;10.80;99.90;;;;;;5046212;28;20020;-75
2024/02/05 03:55:11;;;;;;;25.42;6.90;;;10.80;99.90;;;;;;5047254;28;20056;-75
2024/02/05 03:57:42;;;;;;;24.88;6.47;;;10.70;99.90;;;;;;5045896;28;20021;-75
2024/02/05 04:00:11;;;;;;;26.70;6.13;;;10.70;99.90;;;;;;5046849;28;20036;-75
2024/02/05 04:02:40;;;;;;;25.10;6.85;;;10.70;99.90;;;;;;5044118;28;20021;-74
2024/02/05 04:05:07;;;;;;;24.95;5.78;;;10.70;99.90;;;;;;5045231;28;20066;-74
2024/02/05 04:07:33;;;;;;;32.47;6.10;;;10.70;99.90;;;;;;5046296;28;20021;-74
2024/02/05 04:09:59;;;;;;;32.55;6.60;;;10.70;99.90;;;;;;5046436;28;20501;-74
2024/02/05 04:12:24;;;;;;;33.30;7.80;;;10.70;99.90;;;;;;5042325;28;20022;-74
2024/02/05 04:14:50;;;;;;;30.08;6.15;;;10.70;99.90;;;;;;5043201;28;20021;-74
2024/02/05 04:17:16;;;;;;;35.28;7.45;;;10.70;99.90;;;;;;5046108;28;20025;-74
2024/02/05 04:19:45;;;;;;;36.28;6.55;;;10.70;99.90;;;;;;5044603;28;20111;-75
2024/02/05 04:22:11;;;;;;;34.55;6.50;;;10.70;99.90;;;;;;5046340;28;20050;-75
2024/02/05 04:24:38;;;;;;;26.98;6.32;;;10.70;99.90;;;;;;5045961;28;20029;-74
2024/02/05 04:27:04;;;;;;;28.73;6.13;;;10.70;99.90;;;;;;5046175;28;20553;-74
2024/02/05 04:29:30;;;;;;;34.42;7.80;;;10.70;99.90;;;;;;5044214;28;20033;-74
2024/02/05 04:31:57;;;;;;;32.35;7.30;;;10.70;99.90;;;;;;5046308;28;20371;-74
2024/02/05 04:34:22;;;;;;;40.42;7.80;;;10.70;99.90;;;;;;5045822;28;20487;-74
2024/02/05 04:36:53;;;;;;;30.08;6.57;;;10.70;99.90;;;;;;5046048;28;20040;-74
2024/02/05 04:39:19;;;;;;;31.35;6.22;;;10.70;99.90;;;;;;5045634;28;20013;-74
2024/02/05 04:41:45;;;;;;;27.05;6.82;;;10.70;99.90;;;;;;5045751;28;20501;-75
2024/02/05 04:44:11;;;;;;;26.35;6.20;;;10.70;99.90;;;;;;5044009;28;20029;-74
2024/02/05 04:46:37;;;;;;;33.97;6.10;;;10.70;99.90;;;;;;5044754;28;20029;-75
2024/02/05 04:49:02;;;;;;;37.17;8.15;;;10.60;99.90;;;;;;5044261;28;20020;-75
2024/02/05 04:51:28;;;;;;;37.85;7.03;;;10.60;99.90;;;;;;5046069;28;20483;-74
2024/02/05 04:53:55;;;;;;;33.85;6.28;;;10.60;99.90;;;;;;5043617;28;20482;-74
2024/02/05 04:56:20;;;;;;;31.63;6.53;;;10.60;99.90;;;;;;5044277;28;20021;-74
2024/02/05 04:58:46;;;;;;;25.92;6.57;;;10.60;99.90;;;;;;5045232;28;20376;-75
2024/02/05 05:01:12;;;;;;;22.58;6.03;;;10.60;99.90;;;;;;5045792;28;20024;-74
2024/02/05 05:03:38;;;;;;;30.88;6.47;;;10.60;99.90;;;;;;5045206;28;20064;-75
2024/02/05 05:06:03;;;;;;;25.52;5.80;;;10.60;99.90;;;;;;5045660;28;20060;-75
2024/02/05 05:08:30;;;;;;;20.02;5.40;;;10.60;99.90;;;;;;5043749;28;20123;-75
2024/02/05 05:10:56;;;;;;;28.88;6.05;;;10.60;99.90;;;;;;5044700;28;20025;-74
2024/02/05 05:13:22;;;;;;;28.05;6.97;;;10.60;99.90;;;;;;5037578;28;20024;-73
2024/02/05 05:15:48;;;;;;;27.65;6.03;;;10.60;99.90;;;;;;5048904;28;20028;-75
2024/02/05 05:18:14;;;;;;;29.77;6.38;;;10.60;99.90;;;;;;5049465;28;20020;-75
2024/02/05 05:20:42;;;;;;;25.92;6.45;;;10.60;99.90;;;;;;5049372;28;20021;-75
2024/02/05 05:23:08;;;;;;;27.98;6.72;;;10.60;99.90;;;;;;5049248;28;20631;-75
2024/02/05 05:25:35;;;;;;;31.00;6.22;;;10.60;99.90;;;;;;5048066;28;20036;-75
2024/02/05 05:28:03;;;;;;;31.67;6.72;;;10.60;99.90;;;;;;5049072;28;20028;-75
2024/02/05 05:30:31;;;;;;;31.92;5.68;;;10.60;99.90;;;;;;5049483;28;20359;-74
2024/02/05 05:32:57;;;;;;;26.60;6.38;;;10.60;99.90;;;;;;5049143;28;20021;-73
2024/02/05 05:35:23;;;;;;;27.77;5.55;;;10.60;99.90;;;;;;5049422;28;20379;-75
2024/02/05 05:37:49;;;;;;;26.23;6.93;;;10.60;99.90;;;;;;5047794;28;20025;-73
2024/02/05 05:40:15;;;;;;;23.88;4.95;;;10.60;99.90;;;;;;5048053;28;20031;-73
2024/02/05 05:42:40;;;;;;;31.42;7.15;;;10.60;99.90;;;;;;5048437;28;20487;-74
2024/02/05 05:45:06;;;;;;;32.15;7.50;;;10.60;99.90;;;;;;5048977;28;20024;-73
2024/02/05 05:47:32;;;;;;;29.83;6.10;;;10.60;99.90;;;;;;5048641;28;20382;-74
2024/02/05 05:49:58;;;;;;;21.65;6.10;;;10.60;99.90;;;;;;5047540;28;20021;-73
2024/02/05 05:52:24;;;;;;;25.38;5.78;;;10.60;99.90;;;;;;5049074;28;20108;-74
2024/02/05 05:54:49;;;;;;;27.70;5.85;;;10.60;99.90;;;;;;5048360;28;20536;-74
2024/02/05 05:57:15;;;;;;;35.83;5.45;;;10.60;99.90;;;;;;5047504;28;20039;-74
2024/02/05 05:59:44;;;;;;;31.13;5.97;;;10.60;99.90;;;;;;5048706;28;20033;-74
2024/02/05 06:02:09;;;;;;;33.97;6.28;;;10.60;99.90;;;;;;5049215;28;20029;-73
2024/02/05 06:04:39;;;;;;;26.30;5.55;;;10.50;99.90;;;;;;5048500;28;20117;-74
2024/02/05 06:07:06;;;;;;;27.17;6.10;;;10.50;99.90;;;;;;5049002;28;20029;-74
2024/02/05 06:09:32;;;;;;;29.75;6.65;;;10.50;99.90;;;;;;5048312;28;20031;-74
2024/02/05 06:11:58;;;;;;;25.10;5.55;;;10.50;99.90;;;;;;5047497;28;20388;-73
2024/02/05 06:14:24;;;;;;;25.30;6.35;;;10.50;99.90;;;;;;5041801;28;20400;-75
2024/02/05 06:16:50;;;;;;;25.48;6.10;;;10.50;99.90;;;;;;5048418;28;20028;-74
2024/02/05 06:19:15;;;;;;;27.13;6.63;;;10.50;99.90;;;;;;5048055;28;20514;-74
2024/02/05 06:21:41;;;;;;;29.20;5.38;;;10.50;99.90;;;;;;5048208;28;20067;-74
2024/02/05 06:24:06;;;;;;;35.28;6.22;;;10.50;99.90;;;;;;5048172;28;20020;-74
2024/02/05 06:26:32;;;;;;;26.25;5.78;;;10.50;99.90;;;;;;5047821;28;20048;-77
2024/02/05 06:28:58;;;;;;;28.90;5.97;;;10.50;99.90;;;;;;5047830;28;20518;-74
2024/02/05 06:31:23;;;;;;;24.88;4.82;;;10.50;99.90;;;;;;5048125;28;20036;-73
2024/02/05 06:33:49;;;;;;;25.58;5.70;;;10.50;99.90;;;;;;5046132;28;20028;-75
2024/02/05 06:36:14;;;;;;;23.85;5.38;;;10.50;99.90;;;;;;5048141;28;20151;-74
2024/02/05 06:38:40;;;;;;;23.48;5.60;;;10.50;99.90;;;;;;5047668;28;20024;-74
2024/02/05 06:41:07;;;;;;;27.95;6.30;;;10.50;99.90;;;;;;5048150;28;20156;-75
2024/02/05 06:43:33;;;;;;;34.90;6.47;;;10.50;99.90;;;;;;5047406;28;20029;-74
2024/02/05 06:45:59;;;;;;;22.55;5.28;;;10.40;99.90;;;;;;5048291;28;20024;-74
2024/02/05 06:48:25;;;;;;;27.45;6.88;;;10.40;99.90;;;;;;5047915;28;20024;-75
2024/02/05 06:50:51;;;;;;;22.05;5.65;;;10.40;99.90;;;;;;5047636;28;20482;-74
2024/02/05 06:53:17;;;;;;;30.60;6.05;;;10.40;99.90;;;;;;5047067;28;20041;-75
2024/02/05 06:55:43;;;;;;;19.17;4.15;;;10.40;99.90;;;;;;5042271;28;20026;-74
2024/02/05 06:58:12;;;;;;;29.35;5.95;;;10.40;99.90;;;;;;5047288;28;20021;-74
2024/02/05 07:00:38;;;;;;;24.80;5.57;;;10.40;99.90;;;;;;5047821;28;20521;-75
2024/02/05 07:03:05;;;;;;;29.77;6.82;;;10.40;99.90;;;;;;5045971;28;20029;-75
2024/02/05 07:05:30;;;;;;;33.13;6.68;;;10.40;99.90;;;;;;5041561;28;20037;-74
2024/02/05 07:07:56;;;;;;;27.88;5.78;;;10.40;99.90;;;;;;5047260;28;20025;-74
2024/02/05 07:10:21;;;;;;;22.88;5.85;;;10.40;99.90;;;;;;5042449;28;20025;-75
2024/02/05 07:12:47;;;;;;;24.35;6.10;;;10.40;99.90;;;;;;5034601;28;20029;-74
2024/02/05 07:15:13;;;;;;;30.02;7.22;;;10.40;99.90;;;;;;5032894;28;20030;-74
2024/02/05 07:17:39;;;;;;;31.48;5.65;;;10.40;99.90;;;;;;5038061;28;20021;-74
2024/02/05 07:20:05;;;;;;;27.10;6.22;;;10.40;99.90;;;;;;5035690;28;20017;-73
2024/02/05 07:22:31;;;;;;;21.20;5.78;;;10.40;99.90;;;;;;5040679;28;20025;-74
2024/02/05 07:24:58;;;;;;;21.88;5.38;;;10.40;99.90;;;;;;5032737;28;20408;-74
2024/02/05 07:27:25;;;;;;;25.75;5.38;;;10.40;99.90;;;;;;5035548;28;20020;-74
2024/02/05 07:29:51;;;;;;;22.27;5.63;;;10.40;99.90;;;;;;5032912;28;20033;-75
2024/02/05 07:32:17;;;;;;;30.83;6.50;;;10.40;99.90;;;;;;5037168;28;20029;-75
2024/02/05 07:34:42;;;;;;;26.88;5.70;;;10.30;99.90;;;;;;5038213;28;20094;-75
2024/02/05 07:37:08;;;;;;;41.47;7.65;;;10.40;99.90;;;;;;5033385;28;20029;-74
2024/02/05 07:39:34;;;;;;;32.50;7.18;;;10.40;99.90;;;;;;5034802;28;20087;-74
2024/02/05 07:42:00;;;;;;;30.10;6.63;;;10.40;99.90;;;;;;5030816;28;20017;-75
2024/02/05 07:44:26;;;;;;;29.20;6.30;;;10.40;99.90;;;;;;5031315;28;20106;-73
2024/02/05 07:46:53;;;;;;;30.90;7.20;;;10.40;99.90;;;;;;5026644;28;20056;-73
2024/02/05 07:49:19;;;;;;;26.55;5.88;;;10.30;99.90;;;;;;5029635;28;20082;-74
2024/02/05 07:51:46;;;;;;;33.10;6.40;;;10.30;99.90;;;;;;5043623;28;20016;-74
2024/02/05 07:54:13;;;;;;;23.27;6.18;;;10.40;99.90;;;;;;5039960;28;20069;-73
2024/02/05 07:56:42;;;;;;;27.60;6.15;;;10.30;99.90;;;;;;5046764;28;20056;-74
2024/02/05 07:59:11;;;;;;;32.55;6.40;;;10.40;99.90;;;;;;5046377;28;20029;-74
2024/02/05 08:01:37;;;;;;;28.58;5.80;;;10.30;99.90;;;;;;5033115;28;20020;-74
2024/02/05 08:04:03;;;;;;;29.60;6.50;;;10.30;99.90;;;;;;5039752;28;20545;-75
2024/02/05 08:06:30;;;;;;;30.42;6.80;;;10.30;99.90;;;;;;5044200;28;20021;-74
2024/02/05 08:09:04;;;;;;;24.88;5.93;;;10.30;99.90;;;;;;5042176;28;20029;-75
2024/02/05 08:11:30;;;;;;;25.45;6.00;;;10.30;99.90;;;;;;5044052;28;20036;-75
2024/02/05 08:13:56;;;;;;;27.75;6.95;;;10.30;99.90;;;;;;5039469;28;20021;-74
2024/02/05 08:16:22;;;;;;;31.08;6.78;;;10.30;99.90;;;;;;5045874;28;20494;-75
2024/02/05 08:18:48;;;;;;;27.40;5.78;;;10.30;99.90;;;;;;5045846;28;20013;-76
2024/02/05 08:21:13;;;;;;;25.48;6.00;;;10.30;99.90;;;;;;5040737;28;20111;-75
2024/02/05 08:23:39;;;;;;;19.75;5.97;;;10.30;99.90;;;;;;5027566;28;20037;-75
2024/02/05 08:26:05;;;;;;;32.20;7.03;;;10.30;99.90;;;;;;5038603;28;20521;-75
2024/02/05 08:28:31;;;;;;;27.75;7.68;;;10.30;99.90;;;;;;5026097;28;20037;-75
2024/02/05 08:30:57;;;;;;;30.27;7.75;;;10.30;99.90;;;;;;5025992;28;20035;-75
2024/02/05 08:33:23;;;;;;;31.52;7.13;;;10.30;99.90;;;;;;5035898;28;20119;-76
2024/02/05 08:35:50;;;;;;;31.00;6.22;;;10.30;99.90;;;;;;5042535;28;20025;-75
2024/02/05 08:38:16;;;;;;;28.60;6.15;;;10.20;99.90;;;;;;5040930;28;20113;-76
2024/02/05 08:40:43;;;;;;;30.67;6.65;;;10.20;99.90;;;;;;5031488;28;20104;-75
2024/02/05 08:43:09;;;;;;;31.73;6.82;;;10.20;99.90;;;;;;5039741;28;20048;-75
2024/02/05 08:45:34;;;;;;;29.73;7.15;;;10.20;99.90;;;;;;5034125;28;20029;-75
2024/02/05 08:48:00;;;;;;;42.53;8.18;;;10.20;99.90;;;;;;5033384;28;20040;-75
2024/02/05 08:50:32;;;;;;;34.53;7.85;;;10.20;99.90;;;;;;5032315;28;20041;-74
2024/02/05 08:52:58;;;;;;;29.70;8.20;;;10.20;99.90;;;;;;5043443;28;20086;-75
2024/02/05 08:55:24;;;;;;;26.23;7.22;;;10.20;99.90;;;;;;5037156;28;20029;-75
2024/02/05 08:57:50;;;;;;;29.60;8.30;;;10.20;99.90;;;;;;5041404;28;20498;-74
2024/02/05 09:00:17;;;;;;;28.00;7.97;;;10.20;99.90;;;;;;5043652;28;20017;-76
2024/02/05 09:02:44;;;;;;;27.38;8.68;;;10.20;99.90;;;;;;5032188;28;20487;-74
2024/02/05 09:05:09;;;;;;;33.17;9.45;;;10.20;99.90;;;;;;5042113;28;20471;-75
2024/02/05 09:07:35;;;;;;;34.15;9.23;;;10.20;99.90;;;;;;5044421;28;20036;-74
2024/02/05 09:10:01;;;;;;;32.55;9.52;;;10.20;99.90;;;;;;5029395;28;20853;-76
2024/02/05 09:12:27;;;;;;;31.25;8.80;;;10.20;99.90;;;;;;5026139;28;20044;-75
2024/02/05 09:14:54;;;;;;;31.52;9.85;;;10.30;99.90;;;;;;5041134;28;20044;-76
2024/02/05 09:17:19;;;;;;;37.10;10.13;;;10.30;99.90;;;;;;5028801;28;20024;-76
2024/02/05 09:19:46;;;;;;;31.65;9.55;;;10.30;99.90;;;;;;5026759;28;20033;-75
2024/02/05 09:22:11;;;;;;;28.73;8.57;;;10.30;99.90;;;;;;5034980;28;20021;-74
2024/02/05 09:24:37;;;;;;;29.42;8.57;;;10.30;99.90;;;;;;5029448;28;20038;-75
2024/02/05 09:27:03;;;;;;;31.35;9.55;;;10.30;99.90;;;;;;5026286;28;20037;-75
2024/02/05 09:29:29;;;;;;;31.63;8.38;;;10.30;99.90;;;;;;5035808;28;20040;-76
2024/02/05 09:31:54;;;;;;;32.95;8.95;;;10.30;99.90;;;;;;5035630;28;20433;-75
2024/02/05 09:34:21;;;;;;;31.27;8.20;;;10.40;99.90;;;;;;5035549;28;20038;-75
2024/02/05 09:36:46;;;;;;;27.55;8.23;;;10.30;99.90;;;;;;5034131;28;20108;-75
2024/02/05 09:39:12;;;;;;;32.67;8.95;;;10.40;99.90;;;;;;5024432;28;20113;-75
2024/02/05 09:41:40;;;;;;;35.80;8.52;;;10.30;99.90;;;;;;5028100;28;20045;-74
2024/02/05 09:44:06;;;;;;;40.70;10.10;;;10.30;99.90;;;;;;5026507;28;20094;-74
2024/02/05 09:46:33;;;;;;;32.97;8.05;;;10.30;99.90;;;;;;5027303;28;20029;-75
2024/02/05 09:49:02;;;;;;;33.30;7.47;;;10.30;99.90;;;;;;5028177;28;20025;-75
2024/02/05 09:51:29;;;;;;;25.98;7.07;;;10.30;99.90;;;;;;5028865;28;20072;-74
2024/02/05 09:53:56;;;;;;;29.65;7.70;;;10.30;99.90;;;;;;5031853;28;20052;-74
2024/02/05 09:56:25;;;;;;;27.95;7.35;;;10.30;99.90;;;;;;5039003;28;20026;-73
2024/02/05 09:58:51;;;;;;;24.73;6.72;;;10.30;99.90;;;;;;5028106;28;20017;-75
2024/02/05 10:01:19;;;;;;;27.60;6.90;;;10.30;99.90;;;;;;5029103;28;20793;-74
2024/02/05 10:03:50;;;;;;;22.77;6.10;;;10.30;99.90;;;;;;5030509;28;20061;-76
2024/02/05 10:06:19;;;;;;;33.10;7.30;;;10.40;99.90;;;;;;5034279;28;20401;-75
2024/02/05 10:08:49;;;;;;;31.20;6.95;;;10.40;99.90;;;;;;5037007;28;20016;-75
2024/02/05 10:11:15;;;;;;;31.50;6.55;;;10.40;99.90;;;;;;5038424;28;20105;-75
2024/02/05 10:13:41;;;;;;;29.40;6.80;;;10.40;99.90;;;;;;5040051;28;20032;-74
2024/02/05 10:16:07;;;;;;;23.20;5.57;;;10.40;99.90;;;;;;5042559;28;20063;-75
2024/02/05 10:18:33;;;;;;;28.17;6.07;;;10.40;99.90;;;;;;5037408;28;20025;-75
2024/02/05 10:21:03;;;;;;;25.48;6.40;;;10.40;99.90;;;;;;5034037;28;20017;-74
2024/02/05 10:23:29;;;;;;;28.90;5.88;;;10.40;99.90;;;;;;5030404;28;20236;-74
2024/02/05 10:26:00;;;;;;;28.33;5.40;;;10.40;99.90;;;;;;5029382;28;20022;-75
2024/02/05 10:28:28;;;;;;;28.60;6.75;;;10.40;99.90;;;;;;5040545;28;20116;-75
2024/02/05 10:31:03;;;;;;;29.13;6.07;;;10.50;99.90;;;;;;5033772;28;20033;-75
2024/02/05 10:33:29;;;;;;;25.15;5.38;;;10.50;99.90;;;;;;5040841;28;20630;-74
2024/02/05 10:35:55;;;;;;;28.98;6.15;;;10.40;99.90;;;;;;5045005;28;20017;-74
2024/02/05 10:38:25;;;;;;;25.15;6.45;;;10.50;99.90;;;;;;5044999;28;20356;-74
2024/02/05 10:40:51;;;;;;;27.65;6.10;;;10.50;99.90;;;;;;5039112;28;20021;-75
2024/02/05 10:43:17;;;;;;;28.42;6.18;;;10.50;99.90;;;;;;5040073;28;20433;-76
2024/02/05 10:45:43;;;;;;;22.55;5.25;;;10.50;99.90;;;;;;5036089;28;20068;-75
2024/02/05 10:48:09;;;;;;;22.85;5.30;;;10.60;99.90;;;;;;5038221;28;20108;-75
2024/02/05 10:50:35;;;;;;;26.50;5.57;;;10.60;99.90;;;;;;5033756;28;20104;-74
2024/02/05 10:53:02;;;;;;;28.05;6.88;;;10.60;99.90;;;;;;5041904;28;20559;-75
2024/02/05 10:55:28;;;;;;;22.02;5.38;;;10.60;99.90;;;;;;5039050;28;20025;-75
2024/02/05 10:57:56;;;;;;;31.15;6.00;;;10.60;99.90;;;;;;5039029;28;20517;-74
2024/02/05 11:00:21;;;;;;;28.45;5.78;;;10.60;99.90;;;;;;5032451;28;20097;-76
2024/02/05 11:02:54;;;;;;;27.00;6.68;;;10.60;99.90;;;;;;5043827;28;20522;-75
2024/02/05 11:05:22;;;;;;;23.77;5.70;;;10.60;99.90;;;;;;5028327;28;20506;-74
2024/02/05 11:08:06;;;;;;;21.85;5.20;;;10.60;99.90;;;;;;5028681;28;20033;-74
2024/02/05 11:10:35;;;;;;;33.53;6.15;;;10.60;99.90;;;;;;5036528;28;20032;-74
2024/02/05 11:13:04;;;;;;;34.63;6.72;;;10.70;99.90;;;;;;5031036;28;20025;-74
2024/02/05 11:15:36;;;;;;;28.30;6.80;;;10.60;99.90;;;;;;5035601;28;20033;-75
2024/02/05 11:18:09;;;;;;;21.48;5.53;;;10.60;99.90;;;;;;5043602;28;20017;-74
2024/02/05 11:20:35;;;;;;;24.17;7.03;;;10.70;99.90;;;;;;5036929;28;20029;-74
2024/02/05 11:23:02;;;;;;;26.30;5.65;;;10.70;99.90;;;;;;5032164;28;20024;-73
2024/02/05 11:25:31;;;;;;;28.23;7.05;;;10.70;99.90;;;;;;5033587;28;20057;-73
2024/02/05 11:27:56;;;;;;;20.98;5.63;;;10.70;99.90;;;;;;5039250;28;20020;-74
2024/02/05 11:30:22;;;;;;;29.13;6.32;;;10.70;99.90;;;;;;5033132;28;20025;-73
2024/02/05 11:32:48;;;;;;;19.90;6.35;;;10.70;99.90;;;;;;5034407;28;20025;-74
2024/02/05 11:35:13;;;;;;;29.88;8.30;;;10.70;99.90;;;;;;5031730;28;20025;-75
2024/02/05 11:37:45;;;;;;;26.33;8.38;;;10.80;99.90;;;;;;5034568;28;20080;-75
2024/02/05 11:40:21;;;;;;;30.75;8.55;;;10.80;99.90;;;;;;5038397;28;20098;-75
2024/02/05 11:42:46;;;;;;;24.17;7.63;;;10.80;99.90;;;;;;5037243;28;20482;-74
2024/02/05 11:45:12;;;;;;;27.20;7.72;;;10.90;99.90;;;;;;5028233;28;20048;-75
2024/02/05 11:47:38;;;;;;;27.42;8.15;;;10.90;99.90;;;;;;5041176;28;20031;-75
2024/02/05 11:50:07;;;;;;;22.50;7.43;;;11.00;99.90;;;;;;5037514;28;20564;-73
2024/02/05 11:52:38;;;;;;;26.92;7.88;;;11.00;99.90;;;;;;5027939;28;20678;-74
2024/02/05 11:55:05;;;;;;;27.90;7.45;;;11.00;99.90;;;;;;5045022;28;20088;-75
2024/02/05 11:57:31;;;;;;;23.13;7.10;;;11.10;99.90;;;;;;5041862;28;20116;-75
2024/02/05 11:59:57;;;;;;;25.90;6.80;;;11.20;99.90;;;;;;5036119;28;20104;-73
2024/02/05 12:02:22;;;;;;;26.85;7.25;;;11.20;99.90;;;;;;5028639;28;20022;-74
2024/02/05 12:04:48;;;;;;;22.83;7.88;;;11.20;99.90;;;;;;5029004;28;20017;-77
2024/02/05 12:07:16;;;;;;;30.50;8.38;;;11.30;99.90;;;;;;5027415;28;20036;-74
2024/02/05 12:09:41;;;;;;;23.63;8.13;;;11.40;99.90;;;;;;5043360;28;20021;-74
2024/02/05 12:12:07;;;;;;;31.25;9.23;;;11.40;99.90;;;;;;5044985;28;20751;-75
2024/02/05 12:14:38;;;;;;;32.90;8.57;;;11.40;99.90;;;;;;5037930;28;20495;-74
2024/02/05 12:17:13;;;;;;;25.65;8.15;;;11.50;99.90;;;;;;5040740;28;20500;-74
2024/02/05 12:19:39;;;;;;;24.13;8.15;;;11.50;99.90;;;;;;5034303;28;20022;-74
2024/02/05 12:22:06;;;;;;;20.83;7.80;;;11.60;99.90;;;;;;5035074;28;20023;-75
2024/02/05 12:24:32;;;;;;;26.33;8.43;;;11.70;99.90;;;;;;5035104;28;20029;-74
2024/02/05 12:26:57;;;;;;;22.88;8.20;;;11.80;99.90;;;;;;5041788;28;20017;-74
2024/02/05 12:29:24;;;;;;;30.77;8.65;;;11.80;99.90;;;;;;5042260;28;20177;-74
2024/02/05 12:31:55;;;;;;;27.65;9.05;;;11.80;99.90;;;;;;5036961;28;20026;-74
2024/02/05 12:34:21;;;;;;;;;;;11.90;99.90;;;;;;5034446;28;20232;-74